Hovedside
METAR-TAF:

METAR-TAF

Lufthavner :

Ivalo, Finland

Ivalo lufthavn

breddegrad: 68-37N, lengdegrad: 027-25E, høyde over havet: 147 m

Gjeldene værobservasjon

Denne rapporten ble laget for 40 minutter siden, klokken 11:20 UTC
Vind 6 kt fra Nord, skiftende mellom Nord-nordvest og Nordøst
Temperatur 1°C
Luftfuktighet 75%
Trykk 1023 hPa
Sikt 10 km eller mer
Få skyer i en høyde av 4100 ft

METAR: EFIV 221120Z AUTO 01006KT 330V050 9999 FEW041 01/M03 Q1023

Tid: 15:00 (12:00 UTC)

Varsel

Denne rapporten ble laget for 9 timer og 22 minutter siden, klokken 02:38 UTC
Varsel gyldig fra 22. klokken 03 UTC til 22. klokken 07 UTC
Vind 6 kt fra Nord
Sikt 10 km eller mer
Brutte skyer i en høyde av 1200 ft
lett snø
Blir
fra 22. klokken 03 UTC til 22. klokken 05 UTC
Brutte skyer i en høyde av 1500 ft

TAF: EFIV 220238Z 2203/2207 01006KT 9999 -SN BKN012 BECMG 2203/2205 BKN015

Værobservasjoner og værvarsel for over 4000 flyplasser (METAR- og TAF-rapporter).

Tilgjengelige stasjoner er representert av de røde og gule prikkene på kartet.

Hold musepekeren over prikken for å se navnet på stasjonen.

Klikk så for å se værobservasjoner og -varsler.

For å forandre kartet kan du klikke på den grønne knappen med svart kryss for å zoome inn, på den grønne knappen med strek for å zoome ut, eller på de grønne pilene for å se tilstøtende kart.


METAR-TAF: